Time;durP1;ratioP1;P1;durP2;ratioP2;P2;SDS_P1;SDS_P2;PMS_P1;PMS_P2;Temp;Humidity;BMP_temperature;BMP_pressure;BME280_temperature;BME280_humidity;BME280_pressure;Samples;Min_cycle;Max_cycle;Signal;HPM_P1;HPM_P2
2022/09/24 00:01:50;;;;;;;5.75;2.20;;;16.30;96.70;;;;;;5105037;28;20076;-81
2022/09/24 00:04:18;;;;;;;5.65;2.40;;;16.20;96.70;;;;;;5104285;28;20096;-80
2022/09/24 00:06:47;;;;;;;5.07;2.60;;;16.20;96.70;;;;;;5104580;28;20058;-80
2022/09/24 00:09:18;;;;;;;7.32;2.60;;;16.20;96.70;;;;;;5100752;28;20043;-80
2022/09/24 00:11:48;;;;;;;5.10;2.40;;;16.10;96.70;;;;;;5101042;28;20138;-81
2022/09/24 00:14:18;;;;;;;5.32;2.10;;;16.10;96.70;;;;;;5085340;28;20054;-80
2022/09/24 00:16:46;;;;;;;5.25;2.10;;;16.10;96.70;;;;;;5100880;28;20043;-80
2022/09/24 00:19:14;;;;;;;7.20;1.90;;;16.00;96.70;;;;;;5102601;28;20046;-81
2022/09/24 00:21:43;;;;;;;4.45;2.20;;;16.00;96.70;;;;;;5095363;28;20044;-81
2022/09/24 00:26:48;;;;;;;4.95;1.77;;;16.10;96.70;;;;;;5097518;28;20040;-81
2022/09/24 00:27:05;;;;;;;3.85;1.90;;;16.10;96.70;;;;;;5098275;28;20509;-81
2022/09/24 00:29:34;;;;;;;3.55;1.65;;;16.00;96.70;;;;;;5104305;28;20044;-80
2022/09/24 00:32:04;;;;;;;4.18;1.77;;;16.10;96.70;;;;;;5103150;28;20035;-80
2022/09/24 00:34:33;;;;;;;4.35;1.80;;;16.00;96.70;;;;;;5102409;28;20048;-80
2022/09/24 00:37:01;;;;;;;3.15;1.77;;;16.10;96.70;;;;;;5098037;28;20051;-80
2022/09/24 00:39:29;;;;;;;5.15;1.48;;;16.00;96.70;;;;;;5103095;28;20092;-80
2022/09/24 00:41:57;;;;;;;4.43;1.70;;;16.00;96.70;;;;;;5082403;28;20043;-81
2022/09/24 00:44:57;;;;;;;4.30;1.70;;;16.00;96.70;;;;;;5080997;28;20051;-80
2022/09/24 00:47:39;;;;;;;2.58;1.55;;;15.90;96.70;;;;;;5102612;28;20043;-80
2022/09/24 00:50:18;;;;;;;3.65;1.58;;;16.00;96.70;;;;;;5106215;28;20050;-81
2022/09/24 00:52:51;;;;;;;3.78;1.67;;;16.00;96.70;;;;;;5097992;28;20067;-80
2022/09/24 00:55:23;;;;;;;3.95;1.30;;;15.90;96.70;;;;;;5102334;28;20047;-80
2022/09/24 00:57:55;;;;;;;4.95;1.52;;;16.00;96.70;;;;;;5100612;28;20040;-81
2022/09/24 01:00:25;;;;;;;7.18;2.70;;;16.00;96.70;;;;;;5094448;28;20592;-81
2022/09/24 01:03:04;;;;;;;5.20;2.17;;;15.90;96.70;;;;;;5085537;28;20566;-80
2022/09/24 01:05:35;;;;;;;4.25;1.65;;;15.80;96.70;;;;;;5104995;28;20043;-80
2022/09/24 01:08:03;;;;;;;2.40;1.45;;;15.80;96.70;;;;;;5102050;28;20044;-80
2022/09/24 01:10:49;;;;;;;2.78;1.48;;;15.70;96.70;;;;;;5086342;28;20067;-80
2022/09/24 01:13:35;;;;;;;5.80;1.75;;;15.70;96.70;;;;;;5104343;28;20064;-80
2022/09/24 01:16:17;;;;;;;4.75;2.10;;;15.70;96.70;;;;;;5102711;28;20058;-81
2022/09/24 01:18:51;;;;;;;5.28;1.90;;;15.70;96.70;;;;;;5103781;28;20055;-80
2022/09/24 01:21:26;;;;;;;6.80;2.22;;;15.70;96.70;;;;;;5097844;28;20048;-81
2022/09/24 01:24:27;;;;;;;5.55;2.75;;;15.60;96.70;;;;;;5094729;28;20123;-82
2022/09/24 01:27:06;;;;;;;5.60;3.00;;;15.60;96.70;;;;;;5091093;28;20055;-82
2022/09/24 01:29:44;;;;;;;7.63;2.90;;;15.50;96.70;;;;;;5105423;28;20138;-82
2022/09/24 01:32:17;;;;;;;4.63;2.42;;;15.60;96.70;;;;;;5105913;28;20055;-82
2022/09/24 01:34:49;;;;;;;4.55;2.80;;;15.50;96.70;;;;;;5092509;28;20047;-82
2022/09/24 01:37:21;;;;;;;8.05;2.97;;;15.60;96.70;;;;;;5105256;28;20408;-82
2022/09/24 01:39:52;;;;;;;9.30;3.47;;;15.60;96.70;;;;;;5096453;28;20050;-82
2022/09/24 01:42:22;;;;;;;5.45;2.70;;;15.60;96.70;;;;;;5088670;28;20488;-81
2022/09/24 01:44:53;;;;;;;5.65;3.05;;;15.60;96.70;;;;;;5106831;28;20115;-82
2022/09/24 01:47:28;;;;;;;6.63;3.33;;;15.70;96.70;;;;;;5105110;28;20531;-82
2022/09/24 01:50:02;;;;;;;7.00;3.65;;;15.60;96.70;;;;;;5105591;28;20092;-82
2022/09/24 01:52:37;;;;;;;4.97;3.30;;;15.60;96.70;;;;;;5108907;28;20096;-82
2022/09/24 01:55:09;;;;;;;7.38;3.50;;;15.60;96.70;;;;;;5084469;28;20044;-82
2022/09/24 01:57:41;;;;;;;6.40;3.22;;;15.70;96.70;;;;;;5110195;28;20047;-82
2022/09/24 02:00:13;;;;;;;6.93;3.05;;;15.70;96.70;;;;;;5108760;28;20051;-82
2022/09/24 02:02:46;;;;;;;7.47;3.33;;;15.70;96.70;;;;;;5108605;28;20501;-82
2022/09/24 02:05:23;;;;;;;4.72;2.70;;;15.70;96.70;;;;;;5088753;28;20092;-83
2022/09/24 02:07:57;;;;;;;7.18;2.90;;;15.70;96.70;;;;;;5100046;28;20116;-82
2022/09/24 02:10:31;;;;;;;4.85;3.03;;;15.70;96.70;;;;;;5108260;28;20050;-82
2022/09/24 02:13:04;;;;;;;10.43;3.25;;;15.70;96.70;;;;;;5103808;28;20048;-82
2022/09/24 02:15:37;;;;;;;5.22;2.90;;;15.50;96.70;;;;;;5108409;28;21026;-82
2022/09/24 02:18:08;;;;;;;7.70;2.53;;;15.50;96.70;;;;;;5091489;28;20077;-82
2022/09/24 02:20:39;;;;;;;5.40;2.80;;;15.50;96.70;;;;;;5105263;28;20699;-82
2022/09/24 02:23:10;;;;;;;6.43;2.58;;;15.60;96.70;;;;;;5107966;28;21011;-82
2022/09/24 02:25:43;;;;;;;7.10;2.85;;;15.60;96.70;;;;;;5102783;28;20553;-82
2022/09/24 02:28:11;;;;;;;3.75;2.45;;;15.50;96.70;;;;;;5090930;28;20060;-82
2022/09/24 02:30:45;;;;;;;7.15;2.20;;;15.50;96.70;;;;;;5108515;28;20040;-82
2022/09/24 02:36:07;;;;;;;6.50;2.38;;;15.30;96.70;;;;;;5095394;28;20533;-89
2022/09/24 02:38:36;;;;;;;5.57;2.45;;;15.30;96.70;;;;;;5104987;28;20053;-82
2022/09/24 02:41:08;;;;;;;6.32;2.72;;;15.30;96.70;;;;;;5106836;28;20051;-81
2022/09/24 02:43:36;;;;;;;4.28;2.70;;;15.30;96.70;;;;;;5105002;28;20508;-81
2022/09/24 02:46:05;;;;;;;5.25;2.35;;;15.30;96.70;;;;;;5108197;28;20035;-81
2022/09/24 02:48:33;;;;;;;3.50;2.25;;;15.20;96.70;;;;;;5104106;28;20051;-81
2022/09/24 02:51:03;;;;;;;6.72;2.35;;;15.20;96.70;;;;;;5106414;28;20043;-81
2022/09/24 02:53:31;;;;;;;5.03;2.17;;;15.30;96.70;;;;;;5101675;28;20126;-81
2022/09/24 02:55:59;;;;;;;8.20;2.40;;;15.40;96.70;;;;;;5107411;28;20074;-81
2022/09/24 02:58:28;;;;;;;5.05;1.92;;;15.40;96.70;;;;;;5105799;28;20048;-81
2022/09/24 03:00:56;;;;;;;4.50;2.08;;;15.40;96.70;;;;;;5102342;28;20051;-81
2022/09/24 03:03:26;;;;;;;3.90;1.90;;;15.40;96.70;;;;;;5104190;28;20144;-82
2022/09/24 03:05:53;;;;;;;7.07;2.50;;;15.30;96.70;;;;;;5106655;28;20043;-81
2022/09/24 03:08:23;;;;;;;5.13;2.65;;;15.40;96.70;;;;;;5106677;28;20063;-81
2022/09/24 03:10:51;;;;;;;4.68;2.42;;;15.30;96.70;;;;;;5089590;28;20154;-82
2022/09/24 03:13:19;;;;;;;6.20;3.08;;;15.20;96.70;;;;;;5107468;28;20055;-81
2022/09/24 03:15:47;;;;;;;6.82;3.00;;;15.20;96.70;;;;;;5102797;28;20361;-81
2022/09/24 03:18:15;;;;;;;4.78;2.85;;;15.20;96.70;;;;;;5106590;28;20122;-82
2022/09/24 03:20:54;;;;;;;5.20;2.90;;;15.10;96.70;;;;;;5106831;28;20122;-81
2022/09/24 03:23:22;;;;;;;6.50;2.85;;;15.20;96.70;;;;;;5106484;28;20048;-81
2022/09/24 03:25:50;;;;;;;4.53;2.42;;;15.10;96.70;;;;;;5107630;28;21332;-82
2022/09/24 03:28:18;;;;;;;4.43;2.38;;;15.20;96.70;;;;;;5106179;28;20078;-81
2022/09/24 03:31:01;;;;;;;4.25;2.38;;;15.10;96.70;;;;;;5105848;28;20130;-81
2022/09/24 03:33:31;;;;;;;4.93;2.15;;;15.10;96.70;;;;;;5105112;28;20036;-81
2022/09/24 03:36:03;;;;;;;4.60;2.10;;;15.20;96.70;;;;;;5097732;28;20504;-81
2022/09/24 03:38:31;;;;;;;4.78;2.42;;;15.20;96.70;;;;;;5107400;28;20120;-81
2022/09/24 03:41:00;;;;;;;7.70;2.40;;;15.00;96.70;;;;;;5102969;28;20100;-82
2022/09/24 03:43:28;;;;;;;4.65;1.98;;;15.00;96.70;;;;;;5106015;28;20143;-81
2022/09/24 03:45:56;;;;;;;6.72;2.42;;;15.00;96.70;;;;;;5105813;28;20054;-81
2022/09/24 03:48:25;;;;;;;6.93;2.28;;;15.00;96.70;;;;;;5102089;28;20074;-80
2022/09/24 03:50:53;;;;;;;2.58;1.98;;;14.90;96.70;;;;;;5105671;28;20115;-80
2022/09/24 03:53:23;;;;;;;3.70;2.08;;;14.90;96.70;;;;;;5107014;28;20051;-80
2022/09/24 03:55:54;;;;;;;3.85;1.83;;;14.80;96.70;;;;;;5102764;28;20040;-81
2022/09/24 03:58:23;;;;;;;3.10;2.13;;;14.90;96.70;;;;;;5088236;28;20047;-81
2022/09/24 04:00:52;;;;;;;5.80;2.10;;;14.90;96.70;;;;;;5103244;28;20050;-81
2022/09/24 04:03:21;;;;;;;4.45;2.10;;;14.80;96.70;;;;;;5106000;28;20114;-81
2022/09/24 04:05:50;;;;;;;5.05;2.35;;;14.70;96.70;;;;;;5105334;28;20058;-80
2022/09/24 04:08:18;;;;;;;7.95;2.67;;;14.70;96.70;;;;;;5106766;28;20042;-81
2022/09/24 04:10:49;;;;;;;6.05;3.15;;;14.70;96.70;;;;;;5105972;28;20069;-80
2022/09/24 04:13:18;;;;;;;7.00;3.63;;;14.60;96.70;;;;;;5103143;28;20056;-80
2022/09/24 04:15:49;;;;;;;8.85;5.55;;;14.60;96.70;;;;;;5086441;28;20154;-81
2022/09/24 04:18:18;;;;;;;12.10;7.95;;;14.60;96.70;;;;;;5083414;28;20163;-81
2022/09/24 04:20:46;;;;;;;11.98;7.75;;;14.50;96.70;;;;;;5106109;28;20055;-81
2022/09/24 04:23:14;;;;;;;9.93;5.95;;;14.50;96.70;;;;;;5105090;28;20112;-81
2022/09/24 04:25:43;;;;;;;12.10;5.55;;;14.40;96.70;;;;;;5107630;28;20525;-81
2022/09/24 04:28:13;;;;;;;8.20;4.32;;;14.50;96.70;;;;;;5105770;28;20048;-80
2022/09/24 04:30:41;;;;;;;6.18;3.33;;;14.50;96.70;;;;;;5107403;28;20534;-81
2022/09/24 04:33:10;;;;;;;6.72;3.63;;;14.60;96.70;;;;;;5087430;28;20043;-80
2022/09/24 04:35:38;;;;;;;5.35;3.28;;;14.60;96.70;;;;;;5104223;28;20756;-79
2022/09/24 04:38:11;;;;;;;6.90;3.55;;;14.50;96.70;;;;;;5103048;28;20501;-78
2022/09/24 04:40:39;;;;;;;6.28;3.10;;;14.40;96.70;;;;;;5087221;28;20044;-79
2022/09/24 04:43:08;;;;;;;6.43;2.88;;;14.40;96.70;;;;;;5100776;28;20521;-79
2022/09/24 04:45:38;;;;;;;8.73;2.72;;;14.40;96.70;;;;;;5104460;28;20114;-80
2022/09/24 04:48:06;;;;;;;8.43;3.42;;;14.40;96.70;;;;;;5096760;28;20047;-79
2022/09/24 04:50:34;;;;;;;5.70;3.13;;;14.40;96.70;;;;;;5102379;28;20493;-78
2022/09/24 04:53:02;;;;;;;7.93;3.28;;;14.40;96.70;;;;;;5098444;28;20122;-79
2022/09/24 04:55:31;;;;;;;6.35;4.05;;;14.40;96.70;;;;;;5104142;28;20066;-79
2022/09/24 04:57:59;;;;;;;7.88;4.20;;;14.40;96.70;;;;;;5104349;28;20044;-79
2022/09/24 05:00:27;;;;;;;9.43;4.40;;;14.50;96.70;;;;;;5103986;28;20537;-79
2022/09/24 05:02:58;;;;;;;9.52;4.80;;;14.50;96.70;;;;;;5104434;28;20055;-78
2022/09/24 05:05:27;;;;;;;7.95;5.88;;;14.50;96.70;;;;;;5105323;28;20160;-79
2022/09/24 05:07:58;;;;;;;8.95;6.97;;;14.50;96.70;;;;;;5103041;28;20104;-79
2022/09/24 05:10:27;;;;;;;10.25;6.70;;;14.50;96.70;;;;;;5087403;28;20044;-80
2022/09/24 05:12:55;;;;;;;15.90;7.43;;;14.50;96.70;;;;;;5104178;28;20051;-78
2022/09/24 05:15:23;;;;;;;10.60;8.02;;;14.50;96.70;;;;;;5103528;28;20086;-79
2022/09/24 05:17:51;;;;;;;12.77;8.27;;;14.70;96.70;;;;;;5100666;28;20048;-79
2022/09/24 05:20:20;;;;;;;13.20;7.78;;;14.70;96.70;;;;;;5103558;28;20071;-79
2022/09/24 05:22:49;;;;;;;14.60;7.78;;;14.70;96.70;;;;;;5102910;28;20096;-79
2022/09/24 05:25:19;;;;;;;10.98;6.88;;;14.60;96.70;;;;;;5106972;28;20090;-79
2022/09/24 05:27:49;;;;;;;14.43;7.57;;;14.60;96.70;;;;;;5090718;28;20047;-79
2022/09/24 05:30:19;;;;;;;12.63;6.72;;;14.60;96.70;;;;;;5089802;28;20036;-79
2022/09/24 05:32:53;;;;;;;8.85;5.70;;;14.60;96.70;;;;;;5109357;27;20044;-85
2022/09/24 05:35:23;;;;;;;8.10;5.70;;;14.50;96.70;;;;;;5108140;28;20054;-78
2022/09/24 05:37:52;;;;;;;10.38;5.18;;;14.50;96.70;;;;;;5104882;28;20515;-78
2022/09/24 05:43:08;;;;;;;6.05;4.10;;;14.70;96.70;;;;;;5104997;28;20043;-79
2022/09/24 05:45:36;;;;;;;8.85;4.43;;;14.70;96.70;;;;;;5105208;28;20043;-78
2022/09/24 05:48:04;;;;;;;9.32;4.45;;;14.70;96.70;;;;;;5106662;28;20050;-78
2022/09/24 05:50:34;;;;;;;5.78;3.65;;;14.70;96.70;;;;;;5106007;28;20052;-80
2022/09/24 05:53:03;;;;;;;4.80;3.33;;;14.80;96.70;;;;;;5106910;28;20119;-82
2022/09/24 05:55:31;;;;;;;7.65;3.83;;;14.80;96.70;;;;;;5109403;28;20035;-81
2022/09/24 05:58:05;;;;;;;7.60;4.28;;;14.80;96.70;;;;;;5090153;28;20067;-80
2022/09/24 06:00:34;;;;;;;8.68;4.68;;;14.90;96.70;;;;;;5106122;28;20187;-84
2022/09/24 06:03:04;;;;;;;9.85;5.88;;;15.00;96.70;;;;;;5108015;28;20450;-81
2022/09/24 06:05:34;;;;;;;10.77;5.95;;;15.00;96.70;;;;;;5104589;28;20451;-81
2022/09/24 06:08:03;;;;;;;8.30;6.15;;;15.10;96.70;;;;;;5107302;28;20081;-79
2022/09/24 06:10:31;;;;;;;13.52;7.32;;;15.00;96.70;;;;;;5101403;28;20043;-79
2022/09/24 06:12:59;;;;;;;13.27;7.70;;;15.00;96.70;;;;;;5106629;28;20063;-79
2022/09/24 06:15:27;;;;;;;11.88;7.55;;;15.00;96.70;;;;;;5104741;28;20043;-80
2022/09/24 06:17:55;;;;;;;15.95;9.80;;;15.00;96.70;;;;;;5108233;28;20074;-81
2022/09/24 06:20:23;;;;;;;19.75;10.35;;;15.20;96.70;;;;;;5106548;28;20039;-79
2022/09/24 06:22:56;;;;;;;15.75;8.88;;;15.20;96.70;;;;;;5108138;28;20036;-79
2022/09/24 06:25:24;;;;;;;14.48;8.35;;;15.20;96.70;;;;;;5106051;28;20554;-79
2022/09/24 06:27:59;;;;;;;14.30;7.95;;;15.20;96.70;;;;;;5105774;28;20089;-80
2022/09/24 06:30:29;;;;;;;13.65;8.02;;;15.20;96.70;;;;;;5108255;28;20078;-79
2022/09/24 06:33:01;;;;;;;14.13;6.93;;;15.30;96.70;;;;;;5105920;28;20039;-81
2022/09/24 06:35:29;;;;;;;9.93;7.07;;;15.40;96.70;;;;;;5089172;28;20052;-81
2022/09/24 06:37:59;;;;;;;8.98;6.32;;;15.50;96.70;;;;;;5104411;28;20032;-78
2022/09/24 06:40:27;;;;;;;10.77;6.30;;;15.60;96.70;;;;;;5106416;28;20075;-81
2022/09/24 06:43:03;;;;;;;8.80;5.32;;;15.60;96.70;;;;;;5103267;27;20043;-81
2022/09/24 06:45:31;;;;;;;9.13;5.30;;;15.70;96.70;;;;;;5106619;28;20069;-78
2022/09/24 06:48:01;;;;;;;9.27;5.22;;;15.80;96.70;;;;;;5104852;28;20032;-79
2022/09/24 06:50:30;;;;;;;7.95;4.53;;;15.80;96.70;;;;;;5105978;28;20059;-80
2022/09/24 06:53:04;;;;;;;11.15;5.05;;;16.00;96.70;;;;;;5106827;28;20070;-80
2022/09/24 06:55:32;;;;;;;9.57;5.40;;;16.10;96.70;;;;;;5102599;28;20051;-79
2022/09/24 06:58:05;;;;;;;9.05;5.25;;;16.10;96.70;;;;;;5087426;28;20039;-78
2022/09/24 07:00:35;;;;;;;9.43;5.30;;;16.20;96.70;;;;;;5106453;28;20039;-79
2022/09/24 07:03:03;;;;;;;8.23;4.95;;;16.30;96.70;;;;;;5105818;28;20044;-78
2022/09/24 07:05:32;;;;;;;10.45;5.28;;;16.40;96.70;;;;;;5104487;28;20494;-78
2022/09/24 07:08:05;;;;;;;8.93;5.20;;;16.40;96.70;;;;;;5103525;28;20050;-79
2022/09/24 07:10:33;;;;;;;9.02;5.53;;;16.50;96.70;;;;;;5102805;28;20051;-78
2022/09/24 07:13:02;;;;;;;8.90;5.40;;;16.50;96.70;;;;;;5086985;28;20130;-79
2022/09/24 07:15:30;;;;;;;9.63;6.38;;;16.60;96.70;;;;;;5093239;28;20128;-79
2022/09/24 07:17:58;;;;;;;11.90;6.68;;;16.70;96.70;;;;;;5100974;28;20043;-79
2022/09/24 07:20:27;;;;;;;11.70;6.97;;;16.60;96.70;;;;;;5106480;28;20044;-78
2022/09/24 07:22:55;;;;;;;11.10;6.45;;;16.70;96.70;;;;;;5087665;28;20100;-79
2022/09/24 07:25:25;;;;;;;10.88;6.90;;;16.70;96.70;;;;;;5106537;28;20039;-79
2022/09/24 07:27:53;;;;;;;11.70;6.70;;;16.70;96.70;;;;;;5120502;27;20515;-80
2022/09/24 07:30:21;;;;;;;12.75;7.55;;;16.80;96.70;;;;;;5105146;28;20400;-80
2022/09/24 07:32:54;;;;;;;12.57;8.93;;;16.80;96.70;;;;;;5104616;28;20089;-80
2022/09/24 07:35:23;;;;;;;20.15;12.55;;;16.90;96.70;;;;;;5098838;28;20048;-80
2022/09/24 07:37:59;;;;;;;21.98;14.25;;;17.00;96.70;;;;;;5084927;28;20040;-80
2022/09/24 07:40:29;;;;;;;19.58;13.90;;;17.00;96.70;;;;;;5103856;28;20051;-80
2022/09/24 07:42:58;;;;;;;19.65;13.32;;;17.10;96.70;;;;;;5105539;28;20508;-80
2022/09/24 07:45:28;;;;;;;20.63;12.63;;;17.20;96.70;;;;;;5105457;28;20044;-81
2022/09/24 07:48:14;;;;;;;15.30;11.95;;;17.30;96.70;;;;;;5106869;28;20069;-80
2022/09/24 07:50:42;;;;;;;16.55;11.43;;;17.40;96.70;;;;;;5105223;28;20469;-80
2022/09/24 07:53:11;;;;;;;16.77;11.02;;;17.60;96.70;;;;;;5101165;28;20040;-80
2022/09/24 07:55:41;;;;;;;15.98;9.55;;;17.60;96.70;;;;;;5105040;28;20082;-80
2022/09/24 07:58:12;;;;;;;12.27;8.63;;;17.70;96.70;;;;;;5105052;28;20039;-80
2022/09/24 08:00:41;;;;;;;11.07;7.70;;;17.70;96.70;;;;;;5104062;28;20047;-80
2022/09/24 08:03:09;;;;;;;10.50;6.53;;;17.80;96.70;;;;;;5104733;28;20046;-80
2022/09/24 08:05:43;;;;;;;10.88;7.28;;;17.90;96.70;;;;;;5105332;28;20400;-79
2022/09/24 08:08:12;;;;;;;13.68;7.72;;;18.10;96.70;;;;;;5103725;28;20094;-80
2022/09/24 08:10:42;;;;;;;11.52;7.53;;;18.10;96.70;;;;;;5103143;28;20053;-80
2022/09/24 08:13:10;;;;;;;12.23;7.70;;;18.10;96.70;;;;;;5100553;28;20573;-80
2022/09/24 08:15:39;;;;;;;10.82;7.50;;;18.20;96.70;;;;;;5102691;28;20052;-80
2022/09/24 08:18:09;;;;;;;10.57;7.05;;;18.20;96.70;;;;;;5105457;28;20081;-81
2022/09/24 08:20:39;;;;;;;9.80;6.75;;;18.40;96.70;;;;;;5103824;28;20621;-80
2022/09/24 08:23:11;;;;;;;11.98;6.68;;;18.40;96.70;;;;;;5084196;28;20138;-80
2022/09/24 08:25:40;;;;;;;10.75;6.38;;;18.30;96.70;;;;;;5104062;28;20048;-80
2022/09/24 08:28:15;;;;;;;11.13;6.03;;;18.30;96.70;;;;;;5104963;28;20040;-80
2022/09/24 08:30:43;;;;;;;7.85;5.43;;;18.40;96.70;;;;;;5112602;27;20054;-81
2022/09/24 08:33:12;;;;;;;7.65;5.60;;;18.40;96.70;;;;;;5103765;28;20233;-80
2022/09/24 08:35:39;;;;;;;8.40;5.20;;;18.50;96.70;;;;;;5085152;28;20588;-81
2022/09/24 08:38:08;;;;;;;8.70;5.60;;;18.50;96.70;;;;;;5103312;28;20115;-80
2022/09/24 08:40:41;;;;;;;10.27;6.05;;;18.60;96.70;;;;;;5087273;28;20052;-80
2022/09/24 08:43:23;;;;;;;10.40;5.40;;;18.60;96.70;;;;;;5104150;28;20075;-80
2022/09/24 08:48:46;;;;;;;8.63;4.75;;;18.50;96.70;;;;;;5104073;28;20035;-80
2022/09/24 08:51:17;;;;;;;10.02;4.50;;;18.70;96.70;;;;;;5101722;28;20051;-80
2022/09/24 08:53:51;;;;;;;8.85;4.05;;;18.90;96.70;;;;;;5083103;28;20725;-81
2022/09/24 08:56:24;;;;;;;5.70;3.20;;;19.10;96.70;;;;;;5104431;28;20077;-81
2022/09/24 08:58:58;;;;;;;6.80;4.45;;;19.30;96.70;;;;;;5104665;28;20044;-80
2022/09/24 09:01:34;;;;;;;8.70;4.75;;;19.50;96.70;;;;;;5103134;28;20454;-82
2022/09/24 09:04:12;;;;;;;10.05;6.70;;;19.60;96.70;;;;;;5107594;28;20088;-82
2022/09/24 09:06:56;;;;;;;10.88;6.63;;;19.70;96.70;;;;;;5107892;28;20072;-81
2022/09/24 09:09:31;;;;;;;11.30;6.93;;;19.70;96.70;;;;;;5102592;28;20158;-81
2022/09/24 09:12:02;;;;;;;9.48;5.65;;;19.80;96.70;;;;;;5109148;28;20039;-82
2022/09/24 09:14:38;;;;;;;10.75;6.45;;;19.80;96.70;;;;;;5109452;28;20043;-79
2022/09/24 09:17:22;;;;;;;7.53;5.10;;;19.70;96.70;;;;;;5107600;28;20048;-79
2022/09/24 09:19:55;;;;;;;7.07;4.90;;;19.70;96.70;;;;;;5103229;28;20556;-81
2022/09/24 09:22:29;;;;;;;7.50;4.30;;;19.80;96.70;;;;;;5107380;28;20043;-81
2022/09/24 09:25:02;;;;;;;5.65;3.53;;;19.90;96.70;;;;;;5107190;28;20075;-81
2022/09/24 09:27:31;;;;;;;6.82;3.13;;;19.90;96.70;;;;;;5105758;28;20071;-80
2022/09/24 09:30:12;;;;;;;3.85;2.20;;;19.90;96.70;;;;;;5107380;28;20039;-81
2022/09/24 09:32:55;;;;;;;4.50;2.40;;;20.00;96.70;;;;;;5108018;28;20112;-81
2022/09/24 09:35:30;;;;;;;5.32;3.17;;;20.10;96.70;;;;;;5101605;28;20044;-81
2022/09/24 09:38:08;;;;;;;7.90;3.80;;;20.20;96.70;;;;;;5104939;28;20402;-81
2022/09/24 09:40:44;;;;;;;5.63;3.25;;;20.20;96.70;;;;;;5107778;28;20043;-80
2022/09/24 09:43:13;;;;;;;7.15;2.33;;;20.30;96.70;;;;;;5104893;28;20047;-81
2022/09/24 09:45:52;;;;;;;4.82;1.92;;;20.40;96.70;;;;;;5091382;28;20043;-80
2022/09/24 09:48:25;;;;;;;4.68;2.75;;;20.50;96.70;;;;;;5107316;28;20092;-81
2022/09/24 09:50:58;;;;;;;4.55;2.30;;;20.60;96.70;;;;;;5107555;28;20122;-81
2022/09/24 09:53:30;;;;;;;6.22;3.55;;;20.60;96.70;;;;;;5107624;28;20417;-81
2022/09/24 09:56:07;;;;;;;6.72;3.95;;;20.60;96.70;;;;;;5106985;28;20073;-80
2022/09/24 09:58:39;;;;;;;5.18;3.20;;;20.60;96.70;;;;;;5109199;28;20397;-81
2022/09/24 10:01:11;;;;;;;4.60;2.30;;;20.60;96.70;;;;;;5106730;28;20061;-81
2022/09/24 10:04:03;;;;;;;5.80;2.97;;;20.60;96.70;;;;;;5085993;28;20051;-81
2022/09/24 10:06:33;;;;;;;5.10;3.00;;;20.70;96.70;;;;;;5105879;28;20040;-79
2022/09/24 10:09:12;;;;;;;4.95;2.70;;;20.90;96.70;;;;;;5099147;28;20035;-79
2022/09/24 10:11:41;;;;;;;4.85;2.67;;;21.10;96.70;;;;;;5105508;28;20065;-80
2022/09/24 10:14:11;;;;;;;6.82;2.83;;;21.20;96.70;;;;;;5101029;28;20084;-82
2022/09/24 10:16:42;;;;;;;4.70;3.00;;;21.40;96.70;;;;;;5103343;28;20142;-80
2022/09/24 10:19:16;;;;;;;5.38;2.60;;;21.60;96.70;;;;;;5105205;28;20112;-81
2022/09/24 10:21:43;;;;;;;4.10;2.92;;;21.70;96.70;;;;;;5107634;28;20063;-82
2022/09/24 10:24:16;;;;;;;5.53;3.08;;;21.70;96.70;;;;;;5106146;28;20062;-82
2022/09/24 10:26:45;;;;;;;3.50;2.38;;;21.80;96.70;;;;;;5108807;28;20072;-82
2022/09/24 10:32:14;;;;;;;6.07;2.90;;;21.90;96.70;;;;;;5101682;28;20071;-81
2022/09/24 10:34:55;;;;;;;8.02;3.38;;;21.80;96.70;;;;;;5082084;28;20048;-81
2022/09/24 10:37:23;;;;;;;4.07;2.78;;;21.90;96.70;;;;;;5105932;28;20085;-81
2022/09/24 10:39:58;;;;;;;6.10;2.47;;;21.90;96.70;;;;;;5105744;28;20123;-81
2022/09/24 10:42:28;;;;;;;5.32;2.70;;;21.90;96.70;;;;;;5106220;28;20050;-81
2022/09/24 10:45:00;;;;;;;5.68;3.22;;;22.00;96.70;;;;;;5088348;28;20412;-80
2022/09/24 10:47:35;;;;;;;5.95;2.90;;;22.10;96.70;;;;;;5105848;28;20047;-80
2022/09/24 10:50:24;;;;;;;5.75;3.17;;;22.20;96.70;;;;;;5105591;28;20079;-80
2022/09/24 10:52:56;;;;;;;5.10;2.55;;;22.30;96.70;;;;;;5086198;28;20040;-80
2022/09/24 10:55:39;;;;;;;5.80;3.03;;;22.20;96.70;;;;;;5106773;28;20051;-81
2022/09/24 10:58:37;;;;;;;5.55;3.17;;;22.10;96.70;;;;;;5097125;28;20109;-81
2022/09/24 11:01:15;;;;;;;8.02;3.58;;;21.90;96.70;;;;;;5103616;28;20071;-81
2022/09/24 11:04:18;;;;;;;10.05;3.50;;;21.90;96.70;;;;;;5102065;28;20428;-81
2022/09/24 11:07:13;;;;;;;4.65;2.90;;;21.80;96.70;;;;;;5084318;28;20052;-81
2022/09/24 11:09:48;;;;;;;5.63;3.20;;;21.70;96.70;;;;;;5105744;28;20096;-82
2022/09/24 11:12:29;;;;;;;5.95;2.92;;;21.60;96.70;;;;;;5106453;28;20044;-81
2022/09/24 11:15:10;;;;;;;3.88;2.92;;;21.50;96.70;;;;;;5101888;28;20077;-81
2022/09/24 11:17:52;;;;;;;5.10;2.78;;;21.50;96.70;;;;;;5103295;28;20051;-81
2022/09/24 11:20:35;;;;;;;3.58;2.55;;;21.50;96.70;;;;;;5101841;28;20070;-81
2022/09/24 11:23:46;;;;;;;4.15;2.47;;;21.50;96.70;;;;;;5104757;28;20040;-81
2022/09/24 11:26:24;;;;;;;4.32;2.63;;;21.50;96.70;;;;;;5075554;28;20054;-81
2022/09/24 11:29:14;;;;;;;4.65;2.50;;;21.40;96.70;;;;;;5101073;28;20047;-82
2022/09/24 11:31:56;;;;;;;5.57;2.50;;;21.30;96.70;;;;;;5106974;28;20036;-81
2022/09/24 11:34:49;;;;;;;5.30;2.70;;;21.20;96.70;;;;;;5102447;28;20537;-81
2022/09/24 11:37:34;;;;;;;3.78;2.53;;;21.10;96.70;;;;;;5100840;28;20055;-80
2022/09/24 11:40:23;;;;;;;5.03;2.65;;;21.10;96.70;;;;;;5104978;28;20042;-87
2022/09/24 11:43:05;;;;;;;5.05;2.70;;;21.10;96.70;;;;;;5100511;28;20134;-81
2022/09/24 11:45:50;;;;;;;4.38;2.90;;;21.10;96.70;;;;;;5104558;28;20040;-80
2022/09/24 11:48:31;;;;;;;6.70;3.47;;;21.10;96.70;;;;;;5103841;28;20047;-81
2022/09/24 11:51:13;;;;;;;6.45;3.42;;;21.00;96.70;;;;;;5086581;28;20051;-80
2022/09/24 11:53:48;;;;;;;4.82;3.03;;;21.00;96.70;;;;;;5102576;28;20047;-82
2022/09/24 11:56:22;;;;;;;5.57;3.33;;;20.90;96.70;;;;;;5107091;28;20058;-83
2022/09/24 11:58:57;;;;;;;7.22;3.75;;;20.90;96.70;;;;;;5107108;28;20404;-83
2022/09/24 12:01:29;;;;;;;6.05;4.03;;;20.80;96.70;;;;;;5106297;28;20040;-83
2022/09/24 12:04:03;;;;;;;7.75;4.25;;;20.80;96.70;;;;;;5107606;28;20111;-83
2022/09/24 12:06:35;;;;;;;7.40;5.05;;;20.80;96.70;;;;;;5108254;28;20092;-83
2022/09/24 12:09:15;;;;;;;8.70;4.70;;;20.70;96.70;;;;;;5106955;28;20134;-84
2022/09/24 12:11:48;;;;;;;4.45;3.00;;;20.70;96.70;;;;;;5107393;28;20045;-83
2022/09/24 12:14:21;;;;;;;5.75;3.55;;;20.70;96.70;;;;;;5088878;28;20048;-83
2022/09/24 12:16:55;;;;;;;4.40;3.22;;;20.70;96.70;;;;;;5106578;28;20074;-83
2022/09/24 12:19:27;;;;;;;6.10;3.30;;;20.70;96.70;;;;;;5085315;28;20090;-82
2022/09/24 12:21:57;;;;;;;5.53;3.00;;;20.60;96.70;;;;;;5107390;28;20043;-82
2022/09/24 12:24:32;;;;;;;5.32;3.10;;;20.60;96.70;;;;;;5086597;28;20489;-83
2022/09/24 12:27:06;;;;;;;4.47;2.70;;;20.60;96.70;;;;;;5107651;28;20126;-83
2022/09/24 12:32:53;;;;;;;7.38;3.78;;;20.70;96.70;;;;;;5092012;28;20048;-81
2022/09/24 12:35:32;;;;;;;5.20;3.28;;;20.70;96.70;;;;;;5097257;28;20044;-79
2022/09/24 12:38:04;;;;;;;6.07;3.55;;;20.70;96.70;;;;;;5083260;28;20332;-81
2022/09/24 12:40:59;;;;;;;5.13;3.15;;;20.70;96.70;;;;;;5103875;28;20044;-82
2022/09/24 12:43:33;;;;;;;5.32;3.30;;;20.60;96.70;;;;;;5103993;28;20046;-81
2022/09/24 12:46:04;;;;;;;4.43;3.10;;;20.50;96.70;;;;;;5107143;28;20479;-81
2022/09/24 12:48:37;;;;;;;5.65;2.80;;;20.40;96.70;;;;;;5098908;28;20044;-80
2022/09/24 12:51:09;;;;;;;5.63;2.67;;;20.40;96.70;;;;;;5103108;28;20052;-82
2022/09/24 12:53:41;;;;;;;6.40;3.35;;;20.40;96.70;;;;;;5096103;28;20085;-81
2022/09/24 12:56:11;;;;;;;29.02;14.98;;;20.40;96.70;;;;;;5104075;28;20056;-80
2022/09/24 12:58:41;;;;;;;50.80;39.78;;;20.40;96.70;;;;;;5101372;28;20071;-77
2022/09/24 13:01:13;;;;;;;9.30;6.63;;;20.30;96.70;;;;;;5105042;28;20484;-81
2022/09/24 13:03:42;;;;;;;8.98;5.03;;;20.30;96.70;;;;;;5107607;28;20039;-81
2022/09/24 13:06:22;;;;;;;12.90;6.22;;;20.30;96.70;;;;;;5061162;28;20134;-81
2022/09/24 13:08:51;;;;;;;8.10;4.53;;;20.20;96.70;;;;;;5088678;28;20086;-81
2022/09/24 13:11:28;;;;;;;9.43;4.75;;;20.20;96.70;;;;;;5100781;28;20322;-81
2022/09/24 13:14:07;;;;;;;8.40;4.70;;;20.10;96.70;;;;;;5102080;28;20054;-80
2022/09/24 13:16:40;;;;;;;9.98;4.43;;;20.00;96.70;;;;;;5095311;28;21077;-81
2022/09/24 13:19:25;;;;;;;8.52;3.53;;;19.90;96.70;;;;;;5101454;28;20048;-82
2022/09/24 13:21:56;;;;;;;5.20;2.97;;;19.80;96.70;;;;;;5103459;28;20854;-81
2022/09/24 13:24:27;;;;;;;6.78;3.33;;;19.60;96.70;;;;;;5103653;28;20048;-81
2022/09/24 13:27:08;;;;;;;8.63;3.83;;;19.40;96.70;;;;;;5104652;28;20047;-81
2022/09/24 13:29:39;;;;;;;8.32;3.47;;;19.30;96.70;;;;;;5094228;28;20040;-82